sensor_id;sensor_type;location;lat;lon;timestamp;temperature;humidity
25732;DHT22;13585;50.864;4.406;2022-08-18T00:00:34;28.00;58.00
25732;DHT22;13585;50.864;4.406;2022-08-18T00:03:04;28.00;58.00
25732;DHT22;13585;50.864;4.406;2022-08-18T00:05:30;27.90;58.10
25732;DHT22;13585;50.864;4.406;2022-08-18T00:07:57;27.90;58.10
25732;DHT22;13585;50.864;4.406;2022-08-18T00:10:23;27.90;58.20
25732;DHT22;13585;50.864;4.406;2022-08-18T00:12:48;27.90;58.20
25732;DHT22;13585;50.864;4.406;2022-08-18T00:15:16;27.90;58.20
25732;DHT22;13585;50.864;4.406;2022-08-18T00:17:42;27.90;58.20
25732;DHT22;13585;50.864;4.406;2022-08-18T00:20:12;27.90;58.20
25732;DHT22;13585;50.864;4.406;2022-08-18T00:22:39;27.90;58.20
25732;DHT22;13585;50.864;4.406;2022-08-18T00:25:06;27.90;58.20
25732;DHT22;13585;50.864;4.406;2022-08-18T00:27:34;27.80;58.10
25732;DHT22;13585;50.864;4.406;2022-08-18T00:30:04;27.90;58.20
25732;DHT22;13585;50.864;4.406;2022-08-18T00:32:33;27.90;58.20
25732;DHT22;13585;50.864;4.406;2022-08-18T00:35:08;27.80;58.10
25732;DHT22;13585;50.864;4.406;2022-08-18T00:37:34;27.80;58.20
25732;DHT22;13585;50.864;4.406;2022-08-18T00:40:00;27.80;58.20
25732;DHT22;13585;50.864;4.406;2022-08-18T00:42:28;27.80;58.20
25732;DHT22;13585;50.864;4.406;2022-08-18T00:44:55;27.80;58.30
25732;DHT22;13585;50.864;4.406;2022-08-18T00:47:21;27.80;58.40
25732;DHT22;13585;50.864;4.406;2022-08-18T00:49:50;27.80;58.40
25732;DHT22;13585;50.864;4.406;2022-08-18T00:52:17;27.80;58.40
25732;DHT22;13585;50.864;4.406;2022-08-18T00:54:45;27.80;58.40
25732;DHT22;13585;50.864;4.406;2022-08-18T00:57:14;27.80;58.50
25732;DHT22;13585;50.864;4.406;2022-08-18T00:59:53;27.80;58.50
25732;DHT22;13585;50.864;4.406;2022-08-18T01:02:25;27.80;58.50
25732;DHT22;13585;50.864;4.406;2022-08-18T01:04:54;27.70;58.50
25732;DHT22;13585;50.864;4.406;2022-08-18T01:07:27;27.80;58.30
25732;DHT22;13585;50.864;4.406;2022-08-18T01:09:55;27.80;58.30
25732;DHT22;13585;50.864;4.406;2022-08-18T01:12:24;27.80;58.40
25732;DHT22;13585;50.864;4.406;2022-08-18T01:14:50;27.80;58.50
25732;DHT22;13585;50.864;4.406;2022-08-18T01:17:16;27.80;58.50
25732;DHT22;13585;50.864;4.406;2022-08-18T01:20:00;27.80;58.50
25732;DHT22;13585;50.864;4.406;2022-08-18T01:25:17;27.80;58.50
25732;DHT22;13585;50.864;4.406;2022-08-18T01:28:04;27.80;58.50
25732;DHT22;13585;50.864;4.406;2022-08-18T01:30:31;27.80;58.50
25732;DHT22;13585;50.864;4.406;2022-08-18T01:32:59;27.80;58.50
25732;DHT22;13585;50.864;4.406;2022-08-18T01:35:26;27.80;58.50
25732;DHT22;13585;50.864;4.406;2022-08-18T01:37:53;27.80;58.50
25732;DHT22;13585;50.864;4.406;2022-08-18T01:40:21;27.80;58.50
25732;DHT22;13585;50.864;4.406;2022-08-18T01:42:48;27.80;58.50
25732;DHT22;13585;50.864;4.406;2022-08-18T01:45:15;27.80;58.50
25732;DHT22;13585;50.864;4.406;2022-08-18T01:47:41;27.90;58.50
25732;DHT22;13585;50.864;4.406;2022-08-18T01:50:07;27.80;58.50
25732;DHT22;13585;50.864;4.406;2022-08-18T01:52:35;27.80;58.40
25732;DHT22;13585;50.864;4.406;2022-08-18T01:55:02;27.90;58.50
25732;DHT22;13585;50.864;4.406;2022-08-18T01:57:28;27.90;58.50
25732;DHT22;13585;50.864;4.406;2022-08-18T01:59:55;27.90;58.50
25732;DHT22;13585;50.864;4.406;2022-08-18T02:02:23;27.90;58.50
25732;DHT22;13585;50.864;4.406;2022-08-18T02:04:53;27.90;58.50
25732;DHT22;13585;50.864;4.406;2022-08-18T02:07:21;27.80;58.40
25732;DHT22;13585;50.864;4.406;2022-08-18T02:09:47;27.90;58.40
25732;DHT22;13585;50.864;4.406;2022-08-18T02:12:13;27.90;58.40
25732;DHT22;13585;50.864;4.406;2022-08-18T02:14:38;27.90;58.40
25732;DHT22;13585;50.864;4.406;2022-08-18T02:17:07;27.90;58.50
25732;DHT22;13585;50.864;4.406;2022-08-18T02:19:35;27.90;58.50
25732;DHT22;13585;50.864;4.406;2022-08-18T02:22:01;27.90;58.40
25732;DHT22;13585;50.864;4.406;2022-08-18T02:24:27;27.90;58.40
25732;DHT22;13585;50.864;4.406;2022-08-18T02:26:53;27.90;58.40
25732;DHT22;13585;50.864;4.406;2022-08-18T02:29:18;27.90;58.40
25732;DHT22;13585;50.864;4.406;2022-08-18T02:31:44;27.90;58.40
25732;DHT22;13585;50.864;4.406;2022-08-18T02:34:09;27.90;58.30
25732;DHT22;13585;50.864;4.406;2022-08-18T02:36:35;27.90;58.30
25732;DHT22;13585;50.864;4.406;2022-08-18T02:39:01;27.90;58.30
25732;DHT22;13585;50.864;4.406;2022-08-18T02:41:27;27.90;58.20
25732;DHT22;13585;50.864;4.406;2022-08-18T02:43:53;27.80;58.20
25732;DHT22;13585;50.864;4.406;2022-08-18T02:46:19;27.90;58.20
25732;DHT22;13585;50.864;4.406;2022-08-18T02:48:44;27.80;58.10
25732;DHT22;13585;50.864;4.406;2022-08-18T02:51:14;27.90;58.20
25732;DHT22;13585;50.864;4.406;2022-08-18T02:53:43;27.90;58.10
25732;DHT22;13585;50.864;4.406;2022-08-18T02:56:13;27.90;58.20
25732;DHT22;13585;50.864;4.406;2022-08-18T02:58:59;27.90;58.10
25732;DHT22;13585;50.864;4.406;2022-08-18T03:01:28;27.80;58.00
25732;DHT22;13585;50.864;4.406;2022-08-18T03:03:55;27.80;58.00
25732;DHT22;13585;50.864;4.406;2022-08-18T03:06:22;27.90;58.10
25732;DHT22;13585;50.864;4.406;2022-08-18T03:08:48;27.80;58.00
25732;DHT22;13585;50.864;4.406;2022-08-18T03:11:16;27.80;58.00
25732;DHT22;13585;50.864;4.406;2022-08-18T03:13:42;27.80;58.00
25732;DHT22;13585;50.864;4.406;2022-08-18T03:16:09;27.80;58.00
25732;DHT22;13585;50.864;4.406;2022-08-18T03:18:34;27.80;58.00
25732;DHT22;13585;50.864;4.406;2022-08-18T03:21:08;27.80;58.00
25732;DHT22;13585;50.864;4.406;2022-08-18T03:23:35;27.80;58.00
25732;DHT22;13585;50.864;4.406;2022-08-18T03:26:03;27.80;57.90
25732;DHT22;13585;50.864;4.406;2022-08-18T03:28:28;27.80;58.00
25732;DHT22;13585;50.864;4.406;2022-08-18T03:30:54;27.80;58.00
25732;DHT22;13585;50.864;4.406;2022-08-18T03:33:20;27.80;58.00
25732;DHT22;13585;50.864;4.406;2022-08-18T03:35:46;27.80;58.00
25732;DHT22;13585;50.864;4.406;2022-08-18T03:38:12;27.70;58.00
25732;DHT22;13585;50.864;4.406;2022-08-18T03:40:38;27.80;58.10
25732;DHT22;13585;50.864;4.406;2022-08-18T03:43:04;27.80;58.10
25732;DHT22;13585;50.864;4.406;2022-08-18T03:45:34;27.70;58.10
25732;DHT22;13585;50.864;4.406;2022-08-18T03:48:00;27.80;58.20
25732;DHT22;13585;50.864;4.406;2022-08-18T03:50:27;27.70;58.10
25732;DHT22;13585;50.864;4.406;2022-08-18T03:52:54;27.80;58.20
25732;DHT22;13585;50.864;4.406;2022-08-18T03:55:25;27.70;58.10
25732;DHT22;13585;50.864;4.406;2022-08-18T03:57:52;27.70;58.10
25732;DHT22;13585;50.864;4.406;2022-08-18T04:00:20;27.70;58.20
25732;DHT22;13585;50.864;4.406;2022-08-18T04:02:47;27.70;58.20
25732;DHT22;13585;50.864;4.406;2022-08-18T04:05:13;27.70;58.30
25732;DHT22;13585;50.864;4.406;2022-08-18T04:07:39;27.70;58.20
25732;DHT22;13585;50.864;4.406;2022-08-18T04:10:05;27.70;58.80
25732;DHT22;13585;50.864;4.406;2022-08-18T04:12:31;27.60;58.20
25732;DHT22;13585;50.864;4.406;2022-08-18T04:14:57;27.70;58.30
25732;DHT22;13585;50.864;4.406;2022-08-18T04:17:22;27.60;58.20
25732;DHT22;13585;50.864;4.406;2022-08-18T04:19:50;27.60;58.20
25732;DHT22;13585;50.864;4.406;2022-08-18T04:22:16;27.70;58.20
25732;DHT22;13585;50.864;4.406;2022-08-18T04:24:43;27.70;58.30
25732;DHT22;13585;50.864;4.406;2022-08-18T04:27:09;27.60;58.20
25732;DHT22;13585;50.864;4.406;2022-08-18T04:29:35;27.70;58.20
25732;DHT22;13585;50.864;4.406;2022-08-18T04:32:02;27.70;58.20
25732;DHT22;13585;50.864;4.406;2022-08-18T04:34:30;27.70;58.10
25732;DHT22;13585;50.864;4.406;2022-08-18T04:36:56;27.70;58.10
25732;DHT22;13585;50.864;4.406;2022-08-18T04:39:22;27.70;58.10
25732;DHT22;13585;50.864;4.406;2022-08-18T04:41:48;27.70;58.10
25732;DHT22;13585;50.864;4.406;2022-08-18T04:44:14;27.70;58.10
25732;DHT22;13585;50.864;4.406;2022-08-18T04:46:44;27.70;58.00
25732;DHT22;13585;50.864;4.406;2022-08-18T04:49:12;27.70;58.00
25732;DHT22;13585;50.864;4.406;2022-08-18T04:51:43;27.70;57.90
25732;DHT22;13585;50.864;4.406;2022-08-18T04:54:30;27.70;58.00
25732;DHT22;13585;50.864;4.406;2022-08-18T04:56:56;27.70;57.80
25732;DHT22;13585;50.864;4.406;2022-08-18T04:59:22;27.70;57.90
25732;DHT22;13585;50.864;4.406;2022-08-18T05:01:49;27.70;57.90
25732;DHT22;13585;50.864;4.406;2022-08-18T05:04:16;27.70;58.50
25732;DHT22;13585;50.864;4.406;2022-08-18T05:06:44;27.70;58.00
25732;DHT22;13585;50.864;4.406;2022-08-18T05:09:12;27.70;58.00
25732;DHT22;13585;50.864;4.406;2022-08-18T05:11:37;27.70;58.00
25732;DHT22;13585;50.864;4.406;2022-08-18T05:14:07;27.70;58.00
25732;DHT22;13585;50.864;4.406;2022-08-18T05:16:35;27.70;58.00
25732;DHT22;13585;50.864;4.406;2022-08-18T05:19:03;27.70;57.90
25732;DHT22;13585;50.864;4.406;2022-08-18T05:21:30;27.70;57.90
25732;DHT22;13585;50.864;4.406;2022-08-18T05:23:55;27.70;57.90
25732;DHT22;13585;50.864;4.406;2022-08-18T05:26:21;27.70;57.90
25732;DHT22;13585;50.864;4.406;2022-08-18T05:28:47;27.70;57.90
25732;DHT22;13585;50.864;4.406;2022-08-18T05:31:18;27.70;57.90
25732;DHT22;13585;50.864;4.406;2022-08-18T05:33:45;27.70;57.80
25732;DHT22;13585;50.864;4.406;2022-08-18T05:36:38;27.70;58.40
25732;DHT22;13585;50.864;4.406;2022-08-18T05:39:21;27.70;57.80
25732;DHT22;13585;50.864;4.406;2022-08-18T05:42:06;27.70;57.70
25732;DHT22;13585;50.864;4.406;2022-08-18T05:44:36;27.70;57.70
25732;DHT22;13585;50.864;4.406;2022-08-18T05:49:43;27.60;57.70
25732;DHT22;13585;50.864;4.406;2022-08-18T05:52:20;27.70;57.60
25732;DHT22;13585;50.864;4.406;2022-08-18T05:54:54;27.70;57.70
25732;DHT22;13585;50.864;4.406;2022-08-18T05:57:44;27.70;57.60
25732;DHT22;13585;50.864;4.406;2022-08-18T06:00:11;27.70;57.50
25732;DHT22;13585;50.864;4.406;2022-08-18T06:02:49;27.70;57.50
25732;DHT22;13585;50.864;4.406;2022-08-18T06:05:33;27.70;57.60
25732;DHT22;13585;50.864;4.406;2022-08-18T06:08:12;27.70;57.60
25732;DHT22;13585;50.864;4.406;2022-08-18T06:10:41;27.70;57.50
25732;DHT22;13585;50.864;4.406;2022-08-18T06:13:10;27.70;57.50
25732;DHT22;13585;50.864;4.406;2022-08-18T06:15:51;27.70;57.50
25732;DHT22;13585;50.864;4.406;2022-08-18T06:29:33;27.70;57.50
25732;DHT22;13585;50.864;4.406;2022-08-18T06:37:45;27.70;57.50
25732;DHT22;13585;50.864;4.406;2022-08-18T06:40:32;27.70;57.50
25732;DHT22;13585;50.864;4.406;2022-08-18T06:42:57;27.70;57.40
25732;DHT22;13585;50.864;4.406;2022-08-18T06:45:33;27.70;57.50
25732;DHT22;13585;50.864;4.406;2022-08-18T06:50:54;27.70;57.50
25732;DHT22;13585;50.864;4.406;2022-08-18T06:53:21;27.80;57.50
25732;DHT22;13585;50.864;4.406;2022-08-18T06:55:49;27.70;57.40
25732;DHT22;13585;50.864;4.406;2022-08-18T07:01:01;27.70;57.50
25732;DHT22;13585;50.864;4.406;2022-08-18T07:08:41;27.80;57.50
25732;DHT22;13585;50.864;4.406;2022-08-18T07:13:42;27.80;57.40
25732;DHT22;13585;50.864;4.406;2022-08-18T07:18:43;27.80;57.40
25732;DHT22;13585;50.864;4.406;2022-08-18T07:21:25;27.80;57.30
25732;DHT22;13585;50.864;4.406;2022-08-18T07:24:05;27.80;57.30
25732;DHT22;13585;50.864;4.406;2022-08-18T07:27:03;27.80;57.30
25732;DHT22;13585;50.864;4.406;2022-08-18T07:29:57;27.80;57.20
25732;DHT22;13585;50.864;4.406;2022-08-18T07:32:27;27.80;57.00
25732;DHT22;13585;50.864;4.406;2022-08-18T07:34:56;27.90;56.90
25732;DHT22;13585;50.864;4.406;2022-08-18T07:37:31;27.90;57.00
25732;DHT22;13585;50.864;4.406;2022-08-18T07:40:03;27.90;56.70
25732;DHT22;13585;50.864;4.406;2022-08-18T07:45:40;28.00;56.30
25732;DHT22;13585;50.864;4.406;2022-08-18T07:48:13;28.10;56.30
25732;DHT22;13585;50.864;4.406;2022-08-18T07:55:54;28.10;55.90
25732;DHT22;13585;50.864;4.406;2022-08-18T07:58:36;28.20;56.00
25732;DHT22;13585;50.864;4.406;2022-08-18T08:06:18;28.20;55.70
25732;DHT22;13585;50.864;4.406;2022-08-18T08:09:05;28.20;55.50
25732;DHT22;13585;50.864;4.406;2022-08-18T08:11:54;28.20;55.40
25732;DHT22;13585;50.864;4.406;2022-08-18T08:17:32;28.30;55.20
25732;DHT22;13585;50.864;4.406;2022-08-18T08:25:18;28.30;54.90
25732;DHT22;13585;50.864;4.406;2022-08-18T08:30:23;28.40;54.80
25732;DHT22;13585;50.864;4.406;2022-08-18T08:38:20;28.40;54.70
25732;DHT22;13585;50.864;4.406;2022-08-18T08:43:34;28.40;54.60
25732;DHT22;13585;50.864;4.406;2022-08-18T08:48:49;28.50;54.80
25732;DHT22;13585;50.864;4.406;2022-08-18T08:51:35;28.50;54.60
25732;DHT22;13585;50.864;4.406;2022-08-18T08:54:09;28.50;54.80
25732;DHT22;13585;50.864;4.406;2022-08-18T08:56:42;28.50;55.00
25732;DHT22;13585;50.864;4.406;2022-08-18T08:59:11;28.50;54.90
25732;DHT22;13585;50.864;4.406;2022-08-18T09:04:45;28.50;54.90
25732;DHT22;13585;50.864;4.406;2022-08-18T09:24:25;28.60;54.60
25732;DHT22;13585;50.864;4.406;2022-08-18T09:29:55;28.60;54.50
25732;DHT22;13585;50.864;4.406;2022-08-18T09:40:15;28.60;54.10
25732;DHT22;13585;50.864;4.406;2022-08-18T09:43:24;28.60;54.20
25732;DHT22;13585;50.864;4.406;2022-08-18T09:45:57;28.60;54.00
25732;DHT22;13585;50.864;4.406;2022-08-18T09:48:38;28.60;53.90
25732;DHT22;13585;50.864;4.406;2022-08-18T09:51:20;28.60;53.90
25732;DHT22;13585;50.864;4.406;2022-08-18T09:54:07;28.60;53.90
25732;DHT22;13585;50.864;4.406;2022-08-18T10:04:34;28.60;53.50
25732;DHT22;13585;50.864;4.406;2022-08-18T10:07:33;28.60;53.40
25732;DHT22;13585;50.864;4.406;2022-08-18T10:10:17;28.60;53.50
25732;DHT22;13585;50.864;4.406;2022-08-18T10:18:19;28.70;53.40
25732;DHT22;13585;50.864;4.406;2022-08-18T10:34:54;28.60;53.70
25732;DHT22;13585;50.864;4.406;2022-08-18T10:37:34;28.60;53.80
25732;DHT22;13585;50.864;4.406;2022-08-18T10:43:07;28.50;53.80
25732;DHT22;13585;50.864;4.406;2022-08-18T10:45:35;28.50;53.90
25732;DHT22;13585;50.864;4.406;2022-08-18T10:50:53;28.50;53.80
25732;DHT22;13585;50.864;4.406;2022-08-18T10:53:39;28.50;53.80
25732;DHT22;13585;50.864;4.406;2022-08-18T11:01:42;28.50;53.50
25732;DHT22;13585;50.864;4.406;2022-08-18T11:04:27;28.60;53.50
25732;DHT22;13585;50.864;4.406;2022-08-18T11:07:13;28.60;53.40
25732;DHT22;13585;50.864;4.406;2022-08-18T11:09:42;28.60;53.40
25732;DHT22;13585;50.864;4.406;2022-08-18T11:12:11;28.60;53.30
25732;DHT22;13585;50.864;4.406;2022-08-18T11:19:52;28.60;53.00
25732;DHT22;13585;50.864;4.406;2022-08-18T11:22:34;28.70;52.90
25732;DHT22;13585;50.864;4.406;2022-08-18T11:25:01;28.70;52.80
25732;DHT22;13585;50.864;4.406;2022-08-18T11:27:32;28.70;52.60
25732;DHT22;13585;50.864;4.406;2022-08-18T11:30:01;28.70;52.40
25732;DHT22;13585;50.864;4.406;2022-08-18T11:32:32;28.70;52.30
25732;DHT22;13585;50.864;4.406;2022-08-18T11:35:43;28.80;52.30
25732;DHT22;13585;50.864;4.406;2022-08-18T11:37:53;28.80;52.10
25732;DHT22;13585;50.864;4.406;2022-08-18T11:45:32;28.80;52.40
25732;DHT22;13585;50.864;4.406;2022-08-18T12:01:33;28.90;52.70
25732;DHT22;13585;50.864;4.406;2022-08-18T12:12:02;28.80;52.50
25732;DHT22;13585;50.864;4.406;2022-08-18T12:14:32;28.90;52.60
25732;DHT22;13585;50.864;4.406;2022-08-18T12:16:58;28.80;52.60
25732;DHT22;13585;50.864;4.406;2022-08-18T12:19:24;28.90;52.80
25732;DHT22;13585;50.864;4.406;2022-08-18T12:21:58;28.80;52.70
25732;DHT22;13585;50.864;4.406;2022-08-18T12:26:50;29.00;52.70
25732;DHT22;13585;50.864;4.406;2022-08-18T12:29:17;29.00;52.50
25732;DHT22;13585;50.864;4.406;2022-08-18T12:31:47;28.90;52.50
25732;DHT22;13585;50.864;4.406;2022-08-18T12:34:16;28.90;52.50
25732;DHT22;13585;50.864;4.406;2022-08-18T12:36:41;28.90;52.40
25732;DHT22;13585;50.864;4.406;2022-08-18T12:39:07;28.90;52.40
25732;DHT22;13585;50.864;4.406;2022-08-18T12:41:33;28.90;52.40
25732;DHT22;13585;50.864;4.406;2022-08-18T12:43:59;28.90;52.40
25732;DHT22;13585;50.864;4.406;2022-08-18T12:46:24;28.90;52.30
25732;DHT22;13585;50.864;4.406;2022-08-18T12:48:50;28.90;52.40
25732;DHT22;13585;50.864;4.406;2022-08-18T12:51:16;28.90;52.40
25732;DHT22;13585;50.864;4.406;2022-08-18T12:53:41;29.00;52.40
25732;DHT22;13585;50.864;4.406;2022-08-18T12:58:46;29.00;52.50
25732;DHT22;13585;50.864;4.406;2022-08-18T13:01:12;29.00;52.40
25732;DHT22;13585;50.864;4.406;2022-08-18T13:03:37;29.00;52.40
25732;DHT22;13585;50.864;4.406;2022-08-18T13:06:03;29.00;52.40
25732;DHT22;13585;50.864;4.406;2022-08-18T13:08:29;29.00;52.40
25732;DHT22;13585;50.864;4.406;2022-08-18T13:10:55;29.00;52.30
25732;DHT22;13585;50.864;4.406;2022-08-18T13:13:20;28.90;52.20
25732;DHT22;13585;50.864;4.406;2022-08-18T13:15:46;28.90;52.10
25732;DHT22;13585;50.864;4.406;2022-08-18T13:18:12;28.90;52.10
25732;DHT22;13585;50.864;4.406;2022-08-18T13:20:39;28.90;52.00
25732;DHT22;13585;50.864;4.406;2022-08-18T13:23:05;28.90;52.00
25732;DHT22;13585;50.864;4.406;2022-08-18T13:25:31;28.90;51.90
25732;DHT22;13585;50.864;4.406;2022-08-18T13:27:57;28.90;51.80
25732;DHT22;13585;50.864;4.406;2022-08-18T13:30:23;28.90;51.70
25732;DHT22;13585;50.864;4.406;2022-08-18T13:32:49;28.90;51.60
25732;DHT22;13585;50.864;4.406;2022-08-18T13:35:15;29.00;51.50
25732;DHT22;13585;50.864;4.406;2022-08-18T13:37:40;28.90;51.40
25732;DHT22;13585;50.864;4.406;2022-08-18T13:40:08;29.00;51.40
25732;DHT22;13585;50.864;4.406;2022-08-18T13:42:45;29.00;51.30
25732;DHT22;13585;50.864;4.406;2022-08-18T13:45:18;29.00;51.30
25732;DHT22;13585;50.864;4.406;2022-08-18T13:47:44;29.00;51.10
25732;DHT22;13585;50.864;4.406;2022-08-18T13:50:11;29.00;51.10
25732;DHT22;13585;50.864;4.406;2022-08-18T13:52:37;29.00;51.70
25732;DHT22;13585;50.864;4.406;2022-08-18T13:55:05;29.00;51.00
25732;DHT22;13585;50.864;4.406;2022-08-18T13:57:32;29.00;51.00
25732;DHT22;13585;50.864;4.406;2022-08-18T13:59:58;29.10;51.10
25732;DHT22;13585;50.864;4.406;2022-08-18T14:02:24;29.00;51.00
25732;DHT22;13585;50.864;4.406;2022-08-18T14:04:49;29.00;51.00
25732;DHT22;13585;50.864;4.406;2022-08-18T14:07:15;29.00;51.00
25732;DHT22;13585;50.864;4.406;2022-08-18T14:09:45;29.00;51.00
25732;DHT22;13585;50.864;4.406;2022-08-18T14:12:21;29.00;51.00
25732;DHT22;13585;50.864;4.406;2022-08-18T14:14:48;29.00;51.00
25732;DHT22;13585;50.864;4.406;2022-08-18T14:17:14;29.10;51.00
25732;DHT22;13585;50.864;4.406;2022-08-18T14:19:40;29.10;51.00
25732;DHT22;13585;50.864;4.406;2022-08-18T14:22:24;29.10;51.10
25732;DHT22;13585;50.864;4.406;2022-08-18T14:25:08;29.10;51.10
25732;DHT22;13585;50.864;4.406;2022-08-18T14:27:52;29.10;51.30
25732;DHT22;13585;50.864;4.406;2022-08-18T14:30:19;29.10;51.30
25732;DHT22;13585;50.864;4.406;2022-08-18T14:32:44;29.10;51.40
25732;DHT22;13585;50.864;4.406;2022-08-18T14:35:13;29.10;51.50
25732;DHT22;13585;50.864;4.406;2022-08-18T14:37:40;29.10;51.60
25732;DHT22;13585;50.864;4.406;2022-08-18T14:40:07;29.10;51.70
25732;DHT22;13585;50.864;4.406;2022-08-18T14:42:33;29.10;51.70
25732;DHT22;13585;50.864;4.406;2022-08-18T14:44:59;29.10;51.70
25732;DHT22;13585;50.864;4.406;2022-08-18T14:47:25;29.10;51.80
25732;DHT22;13585;50.864;4.406;2022-08-18T14:49:52;29.10;51.80
25732;DHT22;13585;50.864;4.406;2022-08-18T14:52:18;29.10;51.80
25732;DHT22;13585;50.864;4.406;2022-08-18T14:54:44;29.10;51.80
25732;DHT22;13585;50.864;4.406;2022-08-18T14:57:10;29.10;51.80
25732;DHT22;13585;50.864;4.406;2022-08-18T14:59:37;29.10;51.80
25732;DHT22;13585;50.864;4.406;2022-08-18T15:02:04;29.10;51.80
25732;DHT22;13585;50.864;4.406;2022-08-18T15:04:30;29.10;51.80
25732;DHT22;13585;50.864;4.406;2022-08-18T15:06:58;29.10;51.80
25732;DHT22;13585;50.864;4.406;2022-08-18T15:09:24;29.10;51.80
25732;DHT22;13585;50.864;4.406;2022-08-18T15:11:50;29.10;51.80
25732;DHT22;13585;50.864;4.406;2022-08-18T15:14:16;29.10;51.70
25732;DHT22;13585;50.864;4.406;2022-08-18T15:16:42;29.10;51.60
25732;DHT22;13585;50.864;4.406;2022-08-18T15:19:08;29.10;51.60
25732;DHT22;13585;50.864;4.406;2022-08-18T15:21:34;29.10;51.60
25732;DHT22;13585;50.864;4.406;2022-08-18T15:24:29;29.10;51.50
25732;DHT22;13585;50.864;4.406;2022-08-18T15:27:13;29.10;51.40
25732;DHT22;13585;50.864;4.406;2022-08-18T15:29:40;29.10;51.40
25732;DHT22;13585;50.864;4.406;2022-08-18T15:32:06;29.10;51.40
25732;DHT22;13585;50.864;4.406;2022-08-18T15:34:33;29.10;51.60
25732;DHT22;13585;50.864;4.406;2022-08-18T15:36:59;29.10;51.30
25732;DHT22;13585;50.864;4.406;2022-08-18T15:39:25;29.10;51.20
25732;DHT22;13585;50.864;4.406;2022-08-18T15:41:51;29.10;51.20
25732;DHT22;13585;50.864;4.406;2022-08-18T15:44:19;29.10;51.10
25732;DHT22;13585;50.864;4.406;2022-08-18T15:46:45;29.10;51.10
25732;DHT22;13585;50.864;4.406;2022-08-18T15:49:12;29.20;51.10
25732;DHT22;13585;50.864;4.406;2022-08-18T15:51:39;29.10;51.00
25732;DHT22;13585;50.864;4.406;2022-08-18T15:54:09;29.20;51.70
25732;DHT22;13585;50.864;4.406;2022-08-18T15:56:35;29.20;51.00
25732;DHT22;13585;50.864;4.406;2022-08-18T15:59:03;29.20;51.10
25732;DHT22;13585;50.864;4.406;2022-08-18T16:01:33;29.20;51.10
25732;DHT22;13585;50.864;4.406;2022-08-18T16:04:04;29.10;51.00
25732;DHT22;13585;50.864;4.406;2022-08-18T16:06:30;29.10;51.00
25732;DHT22;13585;50.864;4.406;2022-08-18T16:08:56;29.20;51.10
25732;DHT22;13585;50.864;4.406;2022-08-18T16:11:21;29.20;51.10
25732;DHT22;13585;50.864;4.406;2022-08-18T16:13:48;29.10;51.00
25732;DHT22;13585;50.864;4.406;2022-08-18T16:16:20;29.20;51.00
25732;DHT22;13585;50.864;4.406;2022-08-18T16:18:46;29.20;51.00
25732;DHT22;13585;50.864;4.406;2022-08-18T16:21:19;29.20;50.90
25732;DHT22;13585;50.864;4.406;2022-08-18T16:23:49;29.10;50.90
25732;DHT22;13585;50.864;4.406;2022-08-18T16:26:17;29.10;51.10
25732;DHT22;13585;50.864;4.406;2022-08-18T16:28:45;29.10;50.80
25732;DHT22;13585;50.864;4.406;2022-08-18T16:31:12;29.10;50.70
25732;DHT22;13585;50.864;4.406;2022-08-18T16:33:42;29.10;50.60
25732;DHT22;13585;50.864;4.406;2022-08-18T16:36:09;29.10;50.50
25732;DHT22;13585;50.864;4.406;2022-08-18T16:38:36;29.10;50.40
25732;DHT22;13585;50.864;4.406;2022-08-18T16:41:07;29.10;50.40
25732;DHT22;13585;50.864;4.406;2022-08-18T16:43:35;29.10;51.00
25732;DHT22;13585;50.864;4.406;2022-08-18T16:46:01;29.10;50.30
25732;DHT22;13585;50.864;4.406;2022-08-18T16:48:29;29.10;50.30
25732;DHT22;13585;50.864;4.406;2022-08-18T16:50:55;29.10;50.40
25732;DHT22;13585;50.864;4.406;2022-08-18T16:53:21;29.10;50.40
25732;DHT22;13585;50.864;4.406;2022-08-18T16:55:47;29.10;50.40
25732;DHT22;13585;50.864;4.406;2022-08-18T16:58:14;29.10;50.40
25732;DHT22;13585;50.864;4.406;2022-08-18T17:01:00;29.10;50.40
25732;DHT22;13585;50.864;4.406;2022-08-18T17:03:45;29.10;50.40
25732;DHT22;13585;50.864;4.406;2022-08-18T17:06:30;29.10;50.40
25732;DHT22;13585;50.864;4.406;2022-08-18T17:08:56;29.10;50.40
25732;DHT22;13585;50.864;4.406;2022-08-18T17:11:23;29.10;50.50
25732;DHT22;13585;50.864;4.406;2022-08-18T17:13:53;29.10;50.50
25732;DHT22;13585;50.864;4.406;2022-08-18T17:16:20;29.10;50.40
25732;DHT22;13585;50.864;4.406;2022-08-18T17:18:47;29.00;50.30
25732;DHT22;13585;50.864;4.406;2022-08-18T17:21:17;29.10;50.40
25732;DHT22;13585;50.864;4.406;2022-08-18T17:23:43;29.10;50.30
25732;DHT22;13585;50.864;4.406;2022-08-18T17:29:19;29.00;50.30
25732;DHT22;13585;50.864;4.406;2022-08-18T17:31:52;29.10;50.10
25732;DHT22;13585;50.864;4.406;2022-08-18T17:34:20;29.10;50.10
25732;DHT22;13585;50.864;4.406;2022-08-18T17:36:51;29.00;50.10
25732;DHT22;13585;50.864;4.406;2022-08-18T17:39:21;29.00;50.10
25732;DHT22;13585;50.864;4.406;2022-08-18T17:41:48;29.10;50.10
25732;DHT22;13585;50.864;4.406;2022-08-18T17:44:34;29.00;50.00
25732;DHT22;13585;50.864;4.406;2022-08-18T17:47:02;29.10;50.00
25732;DHT22;13585;50.864;4.406;2022-08-18T17:49:38;29.10;50.10
25732;DHT22;13585;50.864;4.406;2022-08-18T17:52:24;29.00;50.10
25732;DHT22;13585;50.864;4.406;2022-08-18T17:55:07;29.00;50.00
25732;DHT22;13585;50.864;4.406;2022-08-18T17:57:38;29.00;50.20
25732;DHT22;13585;50.864;4.406;2022-08-18T18:00:14;29.00;50.20
25732;DHT22;13585;50.864;4.406;2022-08-18T18:02:43;29.00;50.20
25732;DHT22;13585;50.864;4.406;2022-08-18T18:05:19;29.00;50.30
25732;DHT22;13585;50.864;4.406;2022-08-18T18:10:45;29.00;50.40
25732;DHT22;13585;50.864;4.406;2022-08-18T18:15:47;29.00;50.50
25732;DHT22;13585;50.864;4.406;2022-08-18T18:18:40;29.00;50.60
25732;DHT22;13585;50.864;4.406;2022-08-18T18:23:41;28.90;50.60
25732;DHT22;13585;50.864;4.406;2022-08-18T18:26:24;28.90;50.60
25732;DHT22;13585;50.864;4.406;2022-08-18T18:28:58;28.90;50.70
25732;DHT22;13585;50.864;4.406;2022-08-18T18:31:34;28.90;50.70
25732;DHT22;13585;50.864;4.406;2022-08-18T18:34:03;28.90;50.70
25732;DHT22;13585;50.864;4.406;2022-08-18T18:36:45;28.90;50.90
25732;DHT22;13585;50.864;4.406;2022-08-18T18:39:20;28.90;50.90
25732;DHT22;13585;50.864;4.406;2022-08-18T18:41:47;28.90;51.00
25732;DHT22;13585;50.864;4.406;2022-08-18T18:44:28;28.90;51.00
25732;DHT22;13585;50.864;4.406;2022-08-18T18:47:23;28.90;51.10
25732;DHT22;13585;50.864;4.406;2022-08-18T18:50:02;28.90;51.10
25732;DHT22;13585;50.864;4.406;2022-08-18T18:55:14;28.90;51.10
25732;DHT22;13585;50.864;4.406;2022-08-18T19:00:19;29.00;51.30
25732;DHT22;13585;50.864;4.406;2022-08-18T19:05:43;29.10;51.20
25732;DHT22;13585;50.864;4.406;2022-08-18T19:11:08;29.00;51.40